createdAt,value
2022-12-28T00:01:22.308Z,1.33
2022-12-28T00:03:50.289Z,1.67
2022-12-28T00:06:19.297Z,2.57
2022-12-28T00:08:49.003Z,1.43
2022-12-28T00:11:28.037Z,1.90
2022-12-28T00:14:01.314Z,1.70
2022-12-28T00:16:31.510Z,1.57
2022-12-28T00:19:01.496Z,1.73
2022-12-28T00:21:30.140Z,1.40
2022-12-28T00:24:03.075Z,1.30
2022-12-28T00:26:33.115Z,1.40
2022-12-28T00:29:05.074Z,1.30
2022-12-28T00:31:34.391Z,1.30
2022-12-28T00:34:02.682Z,1.77
2022-12-28T00:37:09.574Z,2.10
2022-12-28T00:39:20.893Z,2.03
2022-12-28T00:41:48.900Z,1.93
2022-12-28T00:44:16.732Z,1.17
2022-12-28T00:46:44.510Z,1.00
2022-12-28T00:49:12.264Z,1.47
2022-12-28T00:51:40.109Z,1.10
2022-12-28T00:54:07.872Z,1.47
2022-12-28T00:56:37.078Z,1.07
2022-12-28T00:59:04.877Z,0.83
2022-12-28T01:01:32.746Z,1.03
2022-12-28T01:04:00.946Z,0.73
2022-12-28T01:06:29.484Z,0.90
2022-12-28T01:08:57.355Z,0.97
2022-12-28T01:11:27.194Z,0.70
2022-12-28T01:13:59.219Z,1.20
2022-12-28T01:16:28.889Z,1.70
2022-12-28T01:19:00.294Z,0.90
2022-12-28T01:21:30.294Z,1.13
2022-12-28T01:23:59.941Z,1.17
2022-12-28T01:26:28.528Z,0.70
2022-12-28T01:28:59.374Z,1.07
2022-12-28T01:31:27.770Z,1.40
2022-12-28T01:33:56.180Z,1.20
2022-12-28T01:36:25.452Z,0.70
2022-12-28T01:38:55.419Z,1.63
2022-12-28T01:41:24.051Z,0.80
2022-12-28T01:44:25.311Z,0.90
2022-12-28T01:46:56.605Z,0.60
2022-12-28T01:49:30.176Z,0.60
2022-12-28T01:52:04.001Z,1.47
2022-12-28T01:54:37.038Z,0.80
2022-12-28T01:57:05.374Z,0.87
2022-12-28T01:59:37.792Z,0.33
2022-12-28T02:02:07.268Z,1.33
2022-12-28T02:04:35.430Z,0.60
2022-12-28T02:07:03.404Z,0.70
2022-12-28T02:09:36.956Z,0.70
2022-12-28T02:12:05.116Z,0.83
2022-12-28T02:14:33.643Z,0.93
2022-12-28T02:17:01.664Z,0.43
2022-12-28T02:19:37.483Z,0.97
2022-12-28T02:22:48.126Z,0.63
2022-12-28T02:25:40.763Z,0.68
2022-12-28T02:28:18.615Z,0.43
2022-12-28T02:30:54.227Z,0.80
2022-12-28T02:33:28.927Z,1.20
2022-12-28T02:36:00.661Z,0.73
2022-12-28T02:38:36.620Z,0.53
2022-12-28T02:41:07.774Z,0.30
2022-12-28T02:46:30.438Z,0.50
2022-12-28T02:49:30.451Z,0.67
2022-12-28T02:52:07.675Z,0.77
2022-12-28T02:55:16.078Z,0.97
2022-12-28T02:58:09.737Z,1.10
2022-12-28T03:00:53.406Z,0.40
2022-12-28T03:03:33.066Z,0.67
2022-12-28T03:06:30.546Z,0.50
2022-12-28T03:09:04.304Z,0.60
2022-12-28T03:11:39.587Z,0.93
2022-12-28T03:14:11.521Z,0.97
2022-12-28T03:16:56.537Z,0.47
2022-12-28T03:19:48.429Z,0.70
2022-12-28T03:22:33.976Z,1.03
2022-12-28T03:25:25.492Z,0.70
2022-12-28T03:28:11.979Z,0.80
2022-12-28T03:31:00.711Z,0.83
2022-12-28T03:33:28.923Z,0.47
2022-12-28T03:36:04.677Z,0.73
2022-12-28T03:38:38.385Z,1.00
2022-12-28T03:41:10.042Z,0.47
2022-12-28T03:43:42.435Z,0.70
2022-12-28T03:46:17.206Z,0.80
2022-12-28T03:48:46.007Z,0.60
2022-12-28T03:51:17.982Z,1.07
2022-12-28T03:53:48.133Z,0.83
2022-12-28T03:56:17.911Z,0.50
2022-12-28T03:58:45.872Z,0.87
2022-12-28T04:01:14.009Z,0.50
2022-12-28T04:03:42.625Z,0.90
2022-12-28T04:06:13.053Z,0.73
2022-12-28T04:08:42.185Z,0.63
2022-12-28T04:11:11.002Z,0.53
2022-12-28T04:13:38.825Z,0.23
2022-12-28T04:16:08.996Z,0.30
2022-12-28T04:18:37.183Z,0.93
2022-12-28T04:21:05.533Z,0.50
2022-12-28T04:23:33.534Z,0.63
2022-12-28T04:26:04.613Z,1.30
2022-12-28T04:28:33.371Z,0.52
2022-12-28T04:31:02.914Z,0.83
2022-12-28T04:33:33.831Z,0.30
2022-12-28T04:36:06.744Z,0.43
2022-12-28T04:38:34.698Z,0.67
2022-12-28T04:41:05.022Z,0.77
2022-12-28T04:43:33.994Z,0.50
2022-12-28T04:46:03.875Z,0.30
2022-12-28T04:48:32.041Z,0.30
2022-12-28T04:51:00.168Z,0.40
2022-12-28T04:53:27.962Z,0.60
2022-12-28T04:55:58.384Z,0.70
2022-12-28T04:58:27.639Z,0.75
2022-12-28T05:00:55.569Z,0.93
2022-12-28T05:03:23.455Z,0.43
2022-12-28T05:05:51.266Z,0.80
2022-12-28T05:08:19.043Z,0.43
2022-12-28T05:10:46.815Z,0.80
2022-12-28T05:13:14.641Z,0.60
2022-12-28T05:15:43.828Z,0.50
2022-12-28T05:18:11.688Z,0.40
2022-12-28T05:20:39.509Z,0.70
2022-12-28T05:23:07.423Z,0.67
2022-12-28T05:25:35.278Z,0.90
2022-12-28T05:28:03.176Z,0.40
2022-12-28T05:30:31.060Z,0.83
2022-12-28T05:33:00.423Z,0.97
2022-12-28T05:35:28.270Z,0.73
2022-12-28T05:37:56.083Z,0.77
2022-12-28T05:40:23.953Z,1.00
2022-12-28T05:42:51.895Z,0.50
2022-12-28T05:45:19.848Z,0.80
2022-12-28T05:47:47.842Z,1.20
2022-12-28T05:50:17.304Z,0.70
2022-12-28T05:52:45.178Z,0.67
2022-12-28T05:55:13.047Z,0.60
2022-12-28T05:57:40.889Z,1.13
2022-12-28T06:00:09.827Z,0.70
2022-12-28T06:02:37.775Z,0.57
2022-12-28T06:05:06.499Z,0.43
2022-12-28T06:07:35.687Z,0.30
2022-12-28T06:10:03.577Z,0.93
2022-12-28T06:12:31.459Z,0.57
2022-12-28T06:14:59.505Z,0.33
2022-12-28T06:17:27.396Z,0.37
2022-12-28T06:19:55.296Z,0.70
2022-12-28T06:22:23.065Z,0.50
2022-12-28T06:24:52.244Z,0.60
2022-12-28T06:27:20.105Z,0.77
2022-12-28T06:29:47.911Z,0.37
2022-12-28T06:32:15.732Z,0.27
2022-12-28T06:34:43.540Z,0.20
2022-12-28T06:37:11.419Z,0.67
2022-12-28T06:39:39.186Z,0.50
2022-12-28T06:42:08.386Z,0.30
2022-12-28T06:44:40.728Z,0.30
2022-12-28T06:47:12.612Z,0.20
2022-12-28T06:49:40.445Z,0.30
2022-12-28T06:52:08.238Z,0.20
2022-12-28T06:54:36.463Z,0.10
2022-12-28T06:57:04.391Z,0.30
2022-12-28T06:59:33.598Z,0.40
2022-12-28T07:02:01.578Z,0.60
2022-12-28T07:04:29.458Z,0.43
2022-12-28T07:06:57.319Z,0.33
2022-12-28T07:09:25.152Z,0.50
2022-12-28T07:11:53.009Z,0.70
2022-12-28T07:14:20.912Z,1.33
2022-12-28T07:16:50.612Z,1.47
2022-12-28T07:19:18.540Z,0.70
2022-12-28T07:21:46.436Z,0.90
2022-12-28T07:24:14.545Z,0.67
2022-12-28T07:26:42.427Z,0.40
2022-12-28T07:29:11.498Z,0.30
2022-12-28T07:31:45.159Z,0.50
2022-12-28T07:34:15.976Z,0.47
2022-12-28T07:36:44.246Z,0.57
2022-12-28T07:39:12.131Z,0.50
2022-12-28T07:41:40.008Z,0.40
2022-12-28T07:44:08.253Z,0.70
2022-12-28T07:46:38.050Z,0.60
2022-12-28T07:49:06.379Z,0.77
2022-12-28T07:51:37.276Z,0.80
2022-12-28T07:54:05.368Z,1.40
2022-12-28T07:59:02.176Z,0.60
2022-12-28T08:01:32.198Z,0.70
2022-12-28T08:04:02.980Z,0.30
2022-12-28T08:06:31.784Z,0.43
2022-12-28T08:09:02.140Z,0.60
2022-12-28T08:11:31.732Z,0.80
2022-12-28T08:14:00.844Z,0.50
2022-12-28T08:16:30.878Z,0.50
2022-12-28T08:18:59.066Z,0.50
2022-12-28T08:21:30.200Z,0.97
2022-12-28T08:26:28.859Z,0.37
2022-12-28T08:28:59.768Z,0.82
2022-12-28T08:31:30.071Z,0.40
2022-12-28T08:33:59.627Z,0.43
2022-12-28T08:36:28.154Z,0.37
2022-12-28T08:38:57.385Z,0.60
2022-12-28T08:41:27.753Z,0.30
2022-12-28T08:43:56.543Z,0.57
2022-12-28T08:46:26.104Z,0.30
2022-12-28T08:48:56.058Z,0.30
2022-12-28T08:51:26.006Z,0.70
2022-12-28T08:53:54.153Z,0.50
2022-12-28T08:56:24.741Z,0.40
2022-12-28T08:58:54.329Z,0.80
2022-12-28T09:01:24.051Z,0.87
2022-12-28T09:03:54.201Z,0.50
2022-12-28T09:06:24.463Z,0.67
2022-12-28T09:09:08.789Z,0.77
2022-12-28T09:11:38.383Z,0.87
2022-12-28T09:14:10.369Z,0.50
2022-12-28T09:16:39.905Z,0.97
2022-12-28T09:19:09.654Z,0.87
2022-12-28T09:21:39.025Z,0.70
2022-12-28T09:24:08.268Z,0.70
2022-12-28T09:26:37.813Z,0.90
2022-12-28T09:29:09.416Z,2.03
2022-12-28T09:31:38.537Z,4.07
2022-12-28T09:36:55.187Z,4.17
2022-12-28T09:39:24.852Z,4.40
2022-12-28T09:41:56.657Z,2.57
2022-12-28T09:44:41.957Z,5.43
2022-12-28T09:47:21.475Z,5.83
2022-12-28T09:50:04.532Z,8.00
2022-12-28T09:52:36.036Z,5.20
2022-12-28T09:55:12.240Z,3.70
2022-12-28T09:57:45.684Z,1.57
2022-12-28T10:00:20.179Z,2.10
2022-12-28T10:02:52.800Z,2.40
2022-12-28T10:05:22.081Z,0.80
2022-12-28T10:07:50.417Z,1.77
2022-12-28T10:10:19.913Z,1.33
2022-12-28T10:12:49.746Z,1.33
2022-12-28T10:15:19.435Z,1.70
2022-12-28T10:17:47.337Z,1.27
2022-12-28T10:20:17.949Z,0.70
2022-12-28T10:22:50.301Z,0.85
2022-12-28T10:25:20.278Z,0.43
2022-12-28T10:27:48.212Z,0.60
2022-12-28T10:30:20.009Z,0.40
2022-12-28T10:32:58.034Z,0.47
2022-12-28T10:35:33.206Z,0.43
2022-12-28T10:38:04.728Z,0.40
2022-12-28T10:40:35.928Z,0.57
2022-12-28T10:45:47.167Z,0.20
2022-12-28T10:48:20.129Z,0.17
2022-12-28T10:50:52.187Z,0.23
2022-12-28T10:53:26.329Z,0.20
2022-12-28T10:56:04.494Z,0.30
2022-12-28T10:58:33.904Z,0.20
2022-12-28T11:01:07.661Z,0.10
2022-12-28T11:03:37.589Z,0.30
2022-12-28T11:06:10.749Z,0.70
2022-12-28T11:08:39.635Z,0.27
2022-12-28T11:11:08.612Z,0.20
2022-12-28T11:13:37.978Z,0.23
2022-12-28T11:16:13.001Z,0.57
2022-12-28T11:18:42.050Z,0.20
2022-12-28T11:21:12.431Z,0.30
2022-12-28T11:23:40.595Z,0.13
2022-12-28T11:26:12.587Z,0.30
2022-12-28T11:28:42.721Z,0.40
2022-12-28T11:31:18.801Z,0.40
2022-12-28T11:33:49.963Z,0.27
2022-12-28T11:38:47.649Z,0.17
2022-12-28T11:41:51.219Z,0.50
2022-12-28T11:44:52.233Z,0.20
2022-12-28T11:47:32.949Z,0.20
2022-12-28T11:50:39.170Z,0.20
2022-12-28T11:53:21.941Z,0.30
2022-12-28T11:56:02.468Z,0.27
2022-12-28T11:59:12.372Z,0.17
2022-12-28T12:01:58.392Z,0.20
2022-12-28T12:04:42.778Z,0.20
2022-12-28T12:07:29.018Z,0.10
2022-12-28T12:10:33.974Z,0.20
2022-12-28T12:13:05.295Z,0.17
2022-12-28T12:18:04.928Z,0.13
2022-12-28T12:20:59.684Z,0.20
2022-12-28T12:23:39.461Z,0.13
2022-12-28T12:26:21.697Z,0.30
2022-12-28T12:28:52.103Z,0.00
2022-12-28T12:31:27.318Z,0.10
2022-12-28T12:34:00.642Z,0.30
2022-12-28T12:36:57.030Z,0.10
2022-12-28T12:39:37.816Z,0.20
2022-12-28T12:42:15.142Z,0.10
2022-12-28T12:44:53.667Z,0.10
2022-12-28T12:47:43.908Z,0.20
2022-12-28T12:50:54.249Z,0.10
2022-12-28T12:53:43.058Z,0.20
2022-12-28T12:56:44.299Z,0.30
2022-12-28T12:59:40.257Z,0.30
2022-12-28T13:02:27.781Z,0.53
2022-12-28T13:04:55.965Z,0.10
2022-12-28T13:07:26.807Z,0.17
2022-12-28T13:09:59.214Z,0.32
2022-12-28T13:12:27.338Z,0.20
2022-12-28T13:14:59.784Z,0.20
2022-12-28T13:17:30.317Z,0.10
2022-12-28T13:20:18.726Z,0.20
2022-12-28T13:22:48.236Z,0.38
2022-12-28T13:25:29.107Z,0.35
2022-12-28T13:27:57.093Z,0.43
2022-12-28T13:30:26.001Z,0.20
2022-12-28T13:32:55.127Z,0.28
2022-12-28T13:35:25.137Z,0.43
2022-12-28T13:38:03.933Z,0.13
2022-12-28T13:40:34.466Z,0.40
2022-12-28T13:43:22.532Z,0.30
2022-12-28T13:45:53.922Z,0.40
2022-12-28T13:48:22.663Z,0.20
2022-12-28T13:50:52.750Z,0.47
2022-12-28T13:53:23.861Z,0.20
2022-12-28T13:55:57.075Z,0.10
2022-12-28T13:58:29.424Z,0.47
2022-12-28T14:00:59.812Z,0.40
2022-12-28T14:03:28.435Z,0.60
2022-12-28T14:06:00.061Z,0.77
2022-12-28T14:08:29.316Z,0.43
2022-12-28T14:10:58.759Z,0.20
2022-12-28T14:13:27.457Z,0.55
2022-12-28T14:15:56.119Z,0.20
2022-12-28T14:18:24.964Z,0.30
2022-12-28T14:20:54.664Z,0.30
2022-12-28T14:23:24.384Z,0.20
2022-12-28T14:25:54.006Z,0.30
2022-12-28T14:28:33.128Z,0.68
2022-12-28T14:31:01.070Z,0.50
2022-12-28T14:33:33.821Z,0.40
2022-12-28T14:36:03.440Z,0.20
2022-12-28T14:38:34.717Z,0.20
2022-12-28T14:41:04.038Z,0.22
2022-12-28T14:43:35.435Z,0.35
2022-12-28T14:46:16.667Z,0.40
2022-12-28T14:48:45.409Z,0.40
2022-12-28T14:51:26.697Z,0.10
2022-12-28T14:56:41.611Z,0.30
2022-12-28T14:59:19.479Z,0.30
2022-12-28T15:01:48.775Z,0.40
2022-12-28T15:04:29.192Z,0.50
2022-12-28T15:06:57.102Z,0.40
2022-12-28T15:09:24.920Z,0.40
2022-12-28T15:12:09.863Z,0.60
2022-12-28T15:14:39.795Z,0.73
2022-12-28T15:17:08.295Z,0.82
2022-12-28T15:19:36.834Z,0.50
2022-12-28T15:22:04.889Z,0.45
2022-12-28T15:24:34.596Z,0.68
2022-12-28T15:27:02.810Z,0.45
2022-12-28T15:32:20.210Z,0.88
2022-12-28T15:34:48.081Z,1.30
2022-12-28T15:37:15.946Z,1.50
2022-12-28T15:39:43.805Z,1.40
2022-12-28T15:42:11.661Z,1.27
2022-12-28T15:44:39.452Z,1.20
2022-12-28T15:47:07.512Z,1.27
2022-12-28T15:49:36.751Z,1.10
2022-12-28T15:52:04.827Z,1.42
2022-12-28T15:54:32.755Z,1.10
2022-12-28T15:57:00.624Z,1.48
2022-12-28T15:59:28.781Z,1.90
2022-12-28T16:01:56.767Z,1.70
2022-12-28T16:04:24.748Z,1.08
2022-12-28T16:06:53.976Z,1.92
2022-12-28T16:09:22.084Z,2.25
2022-12-28T16:11:54.837Z,2.33
2022-12-28T16:14:23.233Z,3.78
2022-12-28T16:16:51.336Z,2.37
2022-12-28T16:19:19.485Z,1.70
2022-12-28T16:21:49.370Z,2.15
2022-12-28T16:24:19.088Z,2.47
2022-12-28T16:26:47.914Z,1.37
2022-12-28T16:29:15.727Z,1.40
2022-12-28T16:31:43.579Z,0.90
2022-12-28T16:34:14.219Z,1.33
2022-12-28T16:36:42.658Z,1.20
2022-12-28T16:39:14.579Z,1.13
2022-12-28T16:41:44.368Z,0.77
2022-12-28T16:44:17.560Z,1.20
2022-12-28T16:46:45.549Z,1.20
2022-12-28T16:49:13.905Z,1.03
2022-12-28T16:51:43.751Z,1.10
2022-12-28T16:54:15.172Z,1.53
2022-12-28T16:56:44.748Z,1.57
2022-12-28T16:59:16.239Z,1.77
2022-12-28T17:01:44.652Z,1.30
2022-12-28T17:04:13.415Z,2.13
2022-12-28T17:06:42.243Z,1.13
2022-12-28T17:09:10.380Z,1.57
2022-12-28T17:11:38.199Z,1.57
2022-12-28T17:14:10.492Z,1.38
2022-12-28T17:16:38.843Z,1.93
2022-12-28T17:19:06.817Z,2.33
2022-12-28T17:21:35.973Z,2.08
2022-12-28T17:24:04.556Z,0.90
2022-12-28T17:26:32.974Z,1.57
2022-12-28T17:29:01.291Z,1.07
2022-12-28T17:31:30.490Z,1.30
2022-12-28T17:34:00.240Z,1.20
2022-12-28T17:36:28.501Z,1.07
2022-12-28T17:38:56.408Z,1.60
2022-12-28T17:41:26.453Z,1.23
2022-12-28T17:43:55.563Z,2.00
2022-12-28T17:46:24.749Z,2.03
2022-12-28T17:48:54.525Z,1.57
2022-12-28T17:51:23.749Z,1.93
2022-12-28T17:53:52.039Z,1.93
2022-12-28T17:56:19.934Z,1.53
2022-12-28T17:58:49.469Z,1.87
2022-12-28T18:01:17.404Z,1.83
2022-12-28T18:03:45.267Z,1.80
2022-12-28T18:06:14.597Z,1.27
2022-12-28T18:08:42.519Z,1.70
2022-12-28T18:11:11.200Z,2.00
2022-12-28T18:13:39.385Z,1.87
2022-12-28T18:16:09.146Z,2.10
2022-12-28T18:18:37.072Z,1.50
2022-12-28T18:21:07.491Z,1.87
2022-12-28T18:23:36.645Z,2.08
2022-12-28T18:26:05.027Z,1.40
2022-12-28T18:28:33.814Z,1.40
2022-12-28T18:31:03.062Z,1.40
2022-12-28T18:33:31.876Z,1.33
2022-12-28T18:36:00.175Z,1.07
2022-12-28T18:38:27.997Z,2.27
2022-12-28T18:40:58.912Z,1.60
2022-12-28T18:43:27.438Z,1.35
2022-12-28T18:45:56.188Z,1.43
2022-12-28T18:48:24.479Z,1.53
2022-12-28T18:50:56.893Z,1.47
2022-12-28T18:53:25.943Z,1.27
2022-12-28T18:55:59.301Z,1.50
2022-12-28T18:58:27.768Z,1.13
2022-12-28T19:01:01.803Z,1.23
2022-12-28T19:03:29.877Z,1.40
2022-12-28T19:06:02.925Z,1.33
2022-12-28T19:08:32.037Z,1.60
2022-12-28T19:11:01.794Z,1.30
2022-12-28T19:13:33.005Z,1.43
2022-12-28T19:18:28.568Z,1.33
2022-12-28T19:20:58.534Z,1.80
2022-12-28T19:23:26.961Z,1.33
2022-12-28T19:25:59.363Z,2.00
2022-12-28T19:28:28.653Z,1.57
2022-12-28T19:31:02.683Z,1.33
2022-12-28T19:33:32.814Z,1.33
2022-12-28T19:36:00.982Z,1.10
2022-12-28T19:38:29.261Z,1.47
2022-12-28T19:40:57.419Z,1.50
2022-12-28T19:43:25.283Z,1.50
2022-12-28T19:46:01.605Z,1.87
2022-12-28T19:48:29.599Z,1.73
2022-12-28T19:50:57.948Z,1.47
2022-12-28T19:53:25.826Z,1.50
2022-12-28T19:55:58.495Z,1.70
2022-12-28T19:58:26.517Z,1.47
2022-12-28T20:00:55.656Z,2.30
2022-12-28T20:03:23.572Z,1.73
2022-12-28T20:05:51.533Z,1.33
2022-12-28T20:08:19.373Z,1.93
2022-12-28T20:10:54.967Z,1.93
2022-12-28T20:13:22.859Z,1.67
2022-12-28T20:15:50.666Z,2.33
2022-12-28T20:18:19.861Z,2.83
2022-12-28T20:21:17.761Z,1.83
2022-12-28T20:23:36.997Z,2.13
2022-12-28T20:26:05.020Z,2.73
2022-12-28T20:28:34.418Z,2.50
2022-12-28T20:31:03.361Z,2.50
2022-12-28T20:33:33.743Z,2.23
2022-12-28T20:36:03.449Z,2.30
2022-12-28T20:38:31.737Z,2.37
2022-12-28T20:41:04.186Z,2.00
2022-12-28T20:43:31.358Z,3.03
2022-12-28T20:45:59.572Z,2.43
2022-12-28T20:48:27.645Z,2.63
2022-12-28T20:51:01.213Z,2.93
2022-12-28T20:53:29.377Z,2.77
2022-12-28T20:56:07.458Z,2.37
2022-12-28T20:58:36.083Z,2.07
2022-12-28T21:01:05.157Z,2.73
2022-12-28T21:03:33.168Z,2.17
2022-12-28T21:06:02.762Z,2.37
2022-12-28T21:08:31.302Z,2.80
2022-12-28T21:10:59.770Z,2.87
2022-12-28T21:13:27.943Z,3.17
2022-12-28T21:15:55.812Z,3.63
2022-12-28T21:18:24.225Z,2.07
2022-12-28T21:20:57.281Z,2.00
2022-12-28T21:23:26.925Z,1.30
2022-12-28T21:26:00.328Z,1.40
2022-12-28T21:28:28.351Z,1.20
2022-12-28T21:30:58.218Z,1.10
2022-12-28T21:33:26.037Z,1.30
2022-12-28T21:36:01.291Z,0.63
2022-12-28T21:38:31.446Z,0.77
2022-12-28T21:41:01.001Z,0.93
2022-12-28T21:43:28.893Z,0.30
2022-12-28T21:46:02.236Z,0.57
2022-12-28T21:48:32.685Z,0.73
2022-12-28T21:51:29.068Z,0.50
2022-12-28T21:53:58.613Z,0.27
2022-12-28T21:56:26.398Z,0.30
2022-12-28T21:58:54.331Z,0.33
2022-12-28T22:01:40.351Z,0.40
2022-12-28T22:04:28.341Z,0.30
2022-12-28T22:06:56.156Z,0.30
2022-12-28T22:09:43.316Z,0.50
2022-12-28T22:12:29.516Z,0.20
2022-12-28T22:15:11.335Z,0.33
2022-12-28T22:17:39.147Z,0.40
2022-12-28T22:20:08.152Z,0.20
2022-12-28T22:22:36.060Z,0.27
2022-12-28T22:25:05.750Z,0.47
2022-12-28T22:27:33.608Z,0.37
2022-12-28T22:30:01.572Z,0.23
2022-12-28T22:32:29.474Z,0.30
2022-12-28T22:34:57.393Z,0.32
2022-12-28T22:37:25.264Z,0.40
2022-12-28T22:39:53.091Z,0.47
2022-12-28T22:42:22.323Z,0.60
2022-12-28T22:44:50.186Z,0.73
2022-12-28T22:47:17.981Z,0.43
2022-12-28T22:49:45.827Z,0.47
2022-12-28T22:52:13.702Z,0.23
2022-12-28T22:54:41.503Z,0.50
2022-12-28T22:57:09.330Z,0.43
2022-12-28T22:59:38.499Z,0.30
2022-12-28T23:02:06.473Z,0.52
2022-12-28T23:04:34.416Z,0.43
2022-12-28T23:07:04.300Z,0.10
2022-12-28T23:09:32.533Z,0.20
2022-12-28T23:12:00.715Z,0.17
2022-12-28T23:14:46.310Z,0.30
2022-12-28T23:17:17.003Z,0.30
2022-12-28T23:20:04.360Z,0.20
2022-12-28T23:22:51.777Z,0.50
2022-12-28T23:25:39.278Z,0.50
2022-12-28T23:28:10.227Z,0.50
2022-12-28T23:30:39.424Z,0.60
2022-12-28T23:33:08.655Z,0.60
2022-12-28T23:35:36.504Z,0.45
2022-12-28T23:38:04.378Z,0.40
2022-12-28T23:40:32.294Z,0.70
2022-12-28T23:43:00.194Z,0.95
2022-12-28T23:45:28.067Z,0.50
2022-12-28T23:47:55.902Z,0.70
2022-12-28T23:50:25.160Z,0.70
2022-12-28T23:52:52.948Z,0.40
2022-12-28T23:55:20.801Z,1.13
2022-12-28T23:57:48.668Z,0.40
